首页
METAR-TAF:

METAR-TAF

机场 :

開雲, 法屬圭亞那

開雲-羅尚博國際機場

纬度: 04-50N, 经度: 052-22W, 海拔: 105米

当前天气观测

该预报发布于33分钟前的14:30 UTC
风速10节,风向东北
温度 29°C
湿度 66%
气压 1014 hPa
能见度10公里或以上
少量云层高于2900英尺
散云层高于3600英尺

METAR: SOCA 201430Z AUTO 04010KT 9999 FEW029 SCT036 29/22 Q1014 TEMPO 4000 SHRA FEW013TCU

时间: 12:03 (15:03 UTC)

预报

该预报发布于4小时和3分钟前的11:00 UTC
预报有效从20日的 12点(UTC)到 21日的 12点(UTC)
风速12节,风向
能见度10公里或以上
少量云层高于2000英尺
散云层高于5000英尺
几率 30% :
短暂存在
从 20日的 14点(UTC)到 20日的 21点(UTC)
能見度: 4000
少量云层高于1300英尺, 塔状积云.
阵雨
成为
从 20日的 23点(UTC)到 21日的 01点(UTC)
风速2节,风向多变

TAF: SOCA 201100Z 2012/2112 08012KT 9999 FEW020 SCT050 PROB30 TEMPO 2014/2021 4000 SHRA FEW013TCU BECMG 2023/2101 VRB02KT

超过4000个机场的气象观测和天气预报(METAR&TAF报告)。

可查询的气象台以黄色和红色小点在地图上表示。

将鼠标移到小点上方,可查看气象台名称。

然后点击查看天气观测和预报。

如需切换地图:点击带黑十字的绿色按钮放大地图;点击带横线的绿色按钮缩小地图;或者点击绿色箭头查看邻近地区的地图。


METAR-TAF: